sensor_id;sensor_type;location;lat;lon;timestamp;temperature;humidity
76168;DHT22;64927;48.214;16.378;2024-03-29T00:01:22;12.30;44.10
76168;DHT22;64927;48.214;16.378;2024-03-29T00:03:48;12.20;43.90
76168;DHT22;64927;48.214;16.378;2024-03-29T00:06:16;12.30;44.10
76168;DHT22;64927;48.214;16.378;2024-03-29T00:08:43;12.30;43.90
76168;DHT22;64927;48.214;16.378;2024-03-29T00:11:08;12.30;44.00
76168;DHT22;64927;48.214;16.378;2024-03-29T00:13:36;12.30;43.90
76168;DHT22;64927;48.214;16.378;2024-03-29T00:16:05;12.30;43.90
76168;DHT22;64927;48.214;16.378;2024-03-29T00:18:31;12.20;44.10
76168;DHT22;64927;48.214;16.378;2024-03-29T00:20:57;12.20;44.20
76168;DHT22;64927;48.214;16.378;2024-03-29T00:23:22;12.20;44.20
76168;DHT22;64927;48.214;16.378;2024-03-29T00:25:48;12.20;44.20
76168;DHT22;64927;48.214;16.378;2024-03-29T00:28:14;12.20;44.30
76168;DHT22;64927;48.214;16.378;2024-03-29T00:30:44;12.20;44.40
76168;DHT22;64927;48.214;16.378;2024-03-29T00:33:10;12.20;44.10
76168;DHT22;64927;48.214;16.378;2024-03-29T00:35:36;12.30;44.00
76168;DHT22;64927;48.214;16.378;2024-03-29T00:38:01;12.30;43.90
76168;DHT22;64927;48.214;16.378;2024-03-29T00:40:27;12.30;44.20
76168;DHT22;64927;48.214;16.378;2024-03-29T00:42:52;12.30;44.00
76168;DHT22;64927;48.214;16.378;2024-03-29T00:45:20;12.20;44.10
76168;DHT22;64927;48.214;16.378;2024-03-29T00:47:46;12.30;44.10
76168;DHT22;64927;48.214;16.378;2024-03-29T00:50:12;12.20;44.10
76168;DHT22;64927;48.214;16.378;2024-03-29T00:52:37;12.10;44.10
76168;DHT22;64927;48.214;16.378;2024-03-29T00:55:03;12.20;44.40
76168;DHT22;64927;48.214;16.378;2024-03-29T00:57:34;12.20;44.20
76168;DHT22;64927;48.214;16.378;2024-03-29T01:00:00;12.10;44.00
76168;DHT22;64927;48.214;16.378;2024-03-29T01:02:26;12.00;44.00
76168;DHT22;64927;48.214;16.378;2024-03-29T01:04:52;12.00;44.60
76168;DHT22;64927;48.214;16.378;2024-03-29T01:07:18;12.10;44.10
76168;DHT22;64927;48.214;16.378;2024-03-29T01:09:43;12.10;44.30
76168;DHT22;64927;48.214;16.378;2024-03-29T01:12:10;12.10;44.30
76168;DHT22;64927;48.214;16.378;2024-03-29T01:14:35;12.10;44.30
76168;DHT22;64927;48.214;16.378;2024-03-29T01:17:01;12.00;44.60
76168;DHT22;64927;48.214;16.378;2024-03-29T01:19:32;12.00;44.60
76168;DHT22;64927;48.214;16.378;2024-03-29T01:22:02;12.00;44.80
76168;DHT22;64927;48.214;16.378;2024-03-29T01:24:28;11.90;45.00
76168;DHT22;64927;48.214;16.378;2024-03-29T01:26:56;12.00;45.00
76168;DHT22;64927;48.214;16.378;2024-03-29T01:29:22;12.00;44.80
76168;DHT22;64927;48.214;16.378;2024-03-29T01:31:47;12.00;44.80
76168;DHT22;64927;48.214;16.378;2024-03-29T01:34:13;12.00;45.00
76168;DHT22;64927;48.214;16.378;2024-03-29T01:36:39;11.90;45.20
76168;DHT22;64927;48.214;16.378;2024-03-29T01:39:04;11.90;45.50
76168;DHT22;64927;48.214;16.378;2024-03-29T01:41:32;11.90;45.60
76168;DHT22;64927;48.214;16.378;2024-03-29T01:43:58;11.80;45.50
76168;DHT22;64927;48.214;16.378;2024-03-29T01:46:24;11.80;45.70
76168;DHT22;64927;48.214;16.378;2024-03-29T01:48:51;11.70;45.80
76168;DHT22;64927;48.214;16.378;2024-03-29T01:51:17;11.60;46.20
76168;DHT22;64927;48.214;16.378;2024-03-29T01:53:47;11.50;46.00
76168;DHT22;64927;48.214;16.378;2024-03-29T01:56:16;11.50;46.40
76168;DHT22;64927;48.214;16.378;2024-03-29T01:58:44;11.40;46.40
76168;DHT22;64927;48.214;16.378;2024-03-29T02:01:12;11.50;46.30
76168;DHT22;64927;48.214;16.378;2024-03-29T02:03:38;11.50;46.00
76168;DHT22;64927;48.214;16.378;2024-03-29T02:06:07;11.50;46.50
76168;DHT22;64927;48.214;16.378;2024-03-29T02:08:35;11.50;46.30
76168;DHT22;64927;48.214;16.378;2024-03-29T02:11:02;11.60;46.10
76168;DHT22;64927;48.214;16.378;2024-03-29T02:13:29;11.60;45.80
76168;DHT22;64927;48.214;16.378;2024-03-29T02:15:55;11.60;45.80
76168;DHT22;64927;48.214;16.378;2024-03-29T02:18:20;11.60;45.90
76168;DHT22;64927;48.214;16.378;2024-03-29T02:20:46;11.60;46.20
76168;DHT22;64927;48.214;16.378;2024-03-29T02:23:16;11.40;46.10
76168;DHT22;64927;48.214;16.378;2024-03-29T02:25:43;11.40;46.30
76168;DHT22;64927;48.214;16.378;2024-03-29T02:28:09;11.40;46.30
76168;DHT22;64927;48.214;16.378;2024-03-29T02:30:35;11.30;46.80
76168;DHT22;64927;48.214;16.378;2024-03-29T02:33:01;11.40;46.60
76168;DHT22;64927;48.214;16.378;2024-03-29T02:35:27;11.30;46.80
76168;DHT22;64927;48.214;16.378;2024-03-29T02:37:53;11.20;46.80
76168;DHT22;64927;48.214;16.378;2024-03-29T02:40:21;11.20;46.80
76168;DHT22;64927;48.214;16.378;2024-03-29T02:42:48;11.10;47.20
76168;DHT22;64927;48.214;16.378;2024-03-29T02:45:14;11.00;47.20
76168;DHT22;64927;48.214;16.378;2024-03-29T02:47:40;10.90;47.40
76168;DHT22;64927;48.214;16.378;2024-03-29T02:50:08;10.90;47.70
76168;DHT22;64927;48.214;16.378;2024-03-29T02:52:34;10.80;47.70
76168;DHT22;64927;48.214;16.378;2024-03-29T02:55:00;10.80;47.70
76168;DHT22;64927;48.214;16.378;2024-03-29T02:57:25;10.80;48.40
76168;DHT22;64927;48.214;16.378;2024-03-29T02:59:53;10.80;48.00
76168;DHT22;64927;48.214;16.378;2024-03-29T03:02:21;10.80;48.00
76168;DHT22;64927;48.214;16.378;2024-03-29T03:04:47;10.80;48.10
76168;DHT22;64927;48.214;16.378;2024-03-29T03:07:13;10.80;48.10
76168;DHT22;64927;48.214;16.378;2024-03-29T03:09:57;10.80;47.90
76168;DHT22;64927;48.214;16.378;2024-03-29T03:12:43;10.90;47.90
76168;DHT22;64927;48.214;16.378;2024-03-29T03:15:09;10.90;47.70
76168;DHT22;64927;48.214;16.378;2024-03-29T03:17:37;10.90;47.70
76168;DHT22;64927;48.214;16.378;2024-03-29T03:20:03;10.80;47.70
76168;DHT22;64927;48.214;16.378;2024-03-29T03:22:37;10.80;48.00
76168;DHT22;64927;48.214;16.378;2024-03-29T03:25:05;10.80;48.00
76168;DHT22;64927;48.214;16.378;2024-03-29T03:27:31;10.80;48.00
76168;DHT22;64927;48.214;16.378;2024-03-29T03:29:57;10.80;48.10
76168;DHT22;64927;48.214;16.378;2024-03-29T03:32:22;10.80;48.40
76168;DHT22;64927;48.214;16.378;2024-03-29T03:34:48;10.80;48.60
76168;DHT22;64927;48.214;16.378;2024-03-29T03:37:16;10.70;48.80
76168;DHT22;64927;48.214;16.378;2024-03-29T03:39:42;10.70;49.00
76168;DHT22;64927;48.214;16.378;2024-03-29T03:42:07;10.70;49.00
76168;DHT22;64927;48.214;16.378;2024-03-29T03:44:33;10.70;49.00
76168;DHT22;64927;48.214;16.378;2024-03-29T03:46:59;10.60;49.10
76168;DHT22;64927;48.214;16.378;2024-03-29T03:49:24;10.70;49.10
76168;DHT22;64927;48.214;16.378;2024-03-29T03:51:52;10.60;49.20
76168;DHT22;64927;48.214;16.378;2024-03-29T03:54:18;10.50;49.20
76168;DHT22;64927;48.214;16.378;2024-03-29T03:56:43;10.50;49.40
76168;DHT22;64927;48.214;16.378;2024-03-29T03:59:09;10.50;49.60
76168;DHT22;64927;48.214;16.378;2024-03-29T04:01:37;10.40;49.70
76168;DHT22;64927;48.214;16.378;2024-03-29T04:04:03;10.30;49.90
76168;DHT22;64927;48.214;16.378;2024-03-29T04:06:31;10.40;49.90
76168;DHT22;64927;48.214;16.378;2024-03-29T04:08:57;10.30;50.00
76168;DHT22;64927;48.214;16.378;2024-03-29T04:11:27;10.30;50.20
76168;DHT22;64927;48.214;16.378;2024-03-29T04:13:54;10.30;50.10
76168;DHT22;64927;48.214;16.378;2024-03-29T04:16:20;10.30;50.20
76168;DHT22;64927;48.214;16.378;2024-03-29T04:18:45;10.30;50.20
76168;DHT22;64927;48.214;16.378;2024-03-29T04:21:11;10.30;50.30
76168;DHT22;64927;48.214;16.378;2024-03-29T04:23:37;10.30;50.40
76168;DHT22;64927;48.214;16.378;2024-03-29T04:26:03;10.30;50.30
76168;DHT22;64927;48.214;16.378;2024-03-29T04:28:28;10.30;50.20
76168;DHT22;64927;48.214;16.378;2024-03-29T04:30:59;10.40;50.10
76168;DHT22;64927;48.214;16.378;2024-03-29T04:33:27;10.40;49.80
76168;DHT22;64927;48.214;16.378;2024-03-29T04:36:01;10.40;49.90
76168;DHT22;64927;48.214;16.378;2024-03-29T04:38:27;10.40;49.60
76168;DHT22;64927;48.214;16.378;2024-03-29T04:40:56;10.40;49.60
76168;DHT22;64927;48.214;16.378;2024-03-29T04:43:26;10.40;49.40
76168;DHT22;64927;48.214;16.378;2024-03-29T04:46:12;10.40;49.30
76168;DHT22;64927;48.214;16.378;2024-03-29T04:48:38;10.30;49.30
76168;DHT22;64927;48.214;16.378;2024-03-29T04:51:05;10.30;49.20
76168;DHT22;64927;48.214;16.378;2024-03-29T04:53:34;10.30;49.20
76168;DHT22;64927;48.214;16.378;2024-03-29T04:56:00;10.40;49.10
76168;DHT22;64927;48.214;16.378;2024-03-29T04:58:26;10.40;48.70
76168;DHT22;64927;48.214;16.378;2024-03-29T05:00:55;10.40;49.30
76168;DHT22;64927;48.214;16.378;2024-03-29T05:03:21;10.40;48.80
76168;DHT22;64927;48.214;16.378;2024-03-29T05:05:50;10.30;48.80
76168;DHT22;64927;48.214;16.378;2024-03-29T05:08:17;10.40;48.50
76168;DHT22;64927;48.214;16.378;2024-03-29T05:10:46;10.40;48.70
76168;DHT22;64927;48.214;16.378;2024-03-29T05:13:15;10.40;48.90
76168;DHT22;64927;48.214;16.378;2024-03-29T05:15:41;10.40;49.50
76168;DHT22;64927;48.214;16.378;2024-03-29T05:18:06;10.40;48.40
76168;DHT22;64927;48.214;16.378;2024-03-29T05:20:32;10.40;48.10
76168;DHT22;64927;48.214;16.378;2024-03-29T05:22:58;10.40;48.60
76168;DHT22;64927;48.214;16.378;2024-03-29T05:25:28;10.40;48.40
76168;DHT22;64927;48.214;16.378;2024-03-29T05:27:54;10.50;48.40
76168;DHT22;64927;48.214;16.378;2024-03-29T05:30:25;10.50;47.90
76168;DHT22;64927;48.214;16.378;2024-03-29T05:32:50;10.50;48.10
76168;DHT22;64927;48.214;16.378;2024-03-29T05:35:18;10.60;47.80
76168;DHT22;64927;48.214;16.378;2024-03-29T05:37:46;10.60;48.00
76168;DHT22;64927;48.214;16.378;2024-03-29T05:40:18;10.60;47.90
76168;DHT22;64927;48.214;16.378;2024-03-29T05:42:45;10.60;47.60
76168;DHT22;64927;48.214;16.378;2024-03-29T05:45:38;10.80;47.60
76168;DHT22;64927;48.214;16.378;2024-03-29T05:48:04;11.00;46.40
76168;DHT22;64927;48.214;16.378;2024-03-29T05:50:29;11.00;46.30
76168;DHT22;64927;48.214;16.378;2024-03-29T05:52:55;11.20;45.60
76168;DHT22;64927;48.214;16.378;2024-03-29T05:55:26;11.20;45.50
76168;DHT22;64927;48.214;16.378;2024-03-29T05:57:52;11.30;45.50
76168;DHT22;64927;48.214;16.378;2024-03-29T06:00:20;11.40;45.30
76168;DHT22;64927;48.214;16.378;2024-03-29T06:02:48;11.60;44.90
76168;DHT22;64927;48.214;16.378;2024-03-29T06:05:14;11.60;44.80
76168;DHT22;64927;48.214;16.378;2024-03-29T06:07:39;11.70;44.70
76168;DHT22;64927;48.214;16.378;2024-03-29T06:10:05;11.80;44.40
76168;DHT22;64927;48.214;16.378;2024-03-29T06:12:33;11.90;43.60
76168;DHT22;64927;48.214;16.378;2024-03-29T06:15:02;12.00;43.00
76168;DHT22;64927;48.214;16.378;2024-03-29T06:17:46;12.20;43.00
76168;DHT22;64927;48.214;16.378;2024-03-29T06:20:12;12.30;40.80
76168;DHT22;64927;48.214;16.378;2024-03-29T06:22:41;12.60;40.50
76168;DHT22;64927;48.214;16.378;2024-03-29T06:25:07;12.80;38.80
76168;DHT22;64927;48.214;16.378;2024-03-29T06:27:35;13.10;37.90
76168;DHT22;64927;48.214;16.378;2024-03-29T06:30:03;13.50;37.80
76168;DHT22;64927;48.214;16.378;2024-03-29T06:32:33;13.70;37.10
76168;DHT22;64927;48.214;16.378;2024-03-29T06:35:02;13.70;36.40
76168;DHT22;64927;48.214;16.378;2024-03-29T06:37:28;13.70;36.90
76168;DHT22;64927;48.214;16.378;2024-03-29T06:39:54;13.70;37.10
76168;DHT22;64927;48.214;16.378;2024-03-29T06:42:20;13.80;36.40
76168;DHT22;64927;48.214;16.378;2024-03-29T06:44:46;13.80;36.50
76168;DHT22;64927;48.214;16.378;2024-03-29T06:47:14;13.80;36.80
76168;DHT22;64927;48.214;16.378;2024-03-29T06:49:40;13.80;36.80
76168;DHT22;64927;48.214;16.378;2024-03-29T06:52:06;13.80;37.50
76168;DHT22;64927;48.214;16.378;2024-03-29T06:54:31;14.00;36.80
76168;DHT22;64927;48.214;16.378;2024-03-29T06:56:58;14.10;37.20
76168;DHT22;64927;48.214;16.378;2024-03-29T06:59:24;14.20;37.40
76168;DHT22;64927;48.214;16.378;2024-03-29T07:01:52;14.30;36.50
76168;DHT22;64927;48.214;16.378;2024-03-29T07:04:24;14.30;36.50
76168;DHT22;64927;48.214;16.378;2024-03-29T07:06:55;14.30;37.80
76168;DHT22;64927;48.214;16.378;2024-03-29T07:09:23;14.50;36.60
76168;DHT22;64927;48.214;16.378;2024-03-29T07:11:50;14.60;35.60
76168;DHT22;64927;48.214;16.378;2024-03-29T07:14:17;14.50;35.70
76168;DHT22;64927;48.214;16.378;2024-03-29T07:16:46;14.60;36.40
76168;DHT22;64927;48.214;16.378;2024-03-29T07:19:12;14.80;36.10
76168;DHT22;64927;48.214;16.378;2024-03-29T07:21:39;14.90;36.20
76168;DHT22;64927;48.214;16.378;2024-03-29T07:24:05;15.20;35.90
76168;DHT22;64927;48.214;16.378;2024-03-29T07:26:31;15.80;34.80
76168;DHT22;64927;48.214;16.378;2024-03-29T07:28:57;16.10;34.10
76168;DHT22;64927;48.214;16.378;2024-03-29T07:31:23;16.10;34.60
76168;DHT22;64927;48.214;16.378;2024-03-29T07:33:49;16.20;35.00
76168;DHT22;64927;48.214;16.378;2024-03-29T07:36:14;16.10;34.90
76168;DHT22;64927;48.214;16.378;2024-03-29T07:38:42;16.00;35.90
76168;DHT22;64927;48.214;16.378;2024-03-29T07:41:08;15.90;36.50
76168;DHT22;64927;48.214;16.378;2024-03-29T07:44:00;15.90;37.20
76168;DHT22;64927;48.214;16.378;2024-03-29T07:46:32;15.90;37.70
76168;DHT22;64927;48.214;16.378;2024-03-29T07:48:57;16.20;38.00
76168;DHT22;64927;48.214;16.378;2024-03-29T07:51:23;16.50;37.80
76168;DHT22;64927;48.214;16.378;2024-03-29T07:53:51;16.50;37.70
76168;DHT22;64927;48.214;16.378;2024-03-29T07:56:17;16.60;37.10
76168;DHT22;64927;48.214;16.378;2024-03-29T07:58:44;16.60;37.30
76168;DHT22;64927;48.214;16.378;2024-03-29T08:01:09;16.50;38.00
76168;DHT22;64927;48.214;16.378;2024-03-29T08:03:35;16.50;38.60
76168;DHT22;64927;48.214;16.378;2024-03-29T08:06:02;16.40;39.00
76168;DHT22;64927;48.214;16.378;2024-03-29T08:08:36;16.60;39.20
76168;DHT22;64927;48.214;16.378;2024-03-29T08:11:02;16.80;39.50
76168;DHT22;64927;48.214;16.378;2024-03-29T08:13:28;16.80;39.70
76168;DHT22;64927;48.214;16.378;2024-03-29T08:15:59;16.90;40.40
76168;DHT22;64927;48.214;16.378;2024-03-29T08:18:27;17.00;40.20
76168;DHT22;64927;48.214;16.378;2024-03-29T08:20:53;17.10;40.50
76168;DHT22;64927;48.214;16.378;2024-03-29T08:23:22;17.10;41.00
76168;DHT22;64927;48.214;16.378;2024-03-29T08:25:47;16.90;41.70
76168;DHT22;64927;48.214;16.378;2024-03-29T08:28:20;16.80;42.30
76168;DHT22;64927;48.214;16.378;2024-03-29T08:30:46;16.80;42.80
76168;DHT22;64927;48.214;16.378;2024-03-29T08:33:11;16.80;43.50
76168;DHT22;64927;48.214;16.378;2024-03-29T08:35:37;17.00;43.80
76168;DHT22;64927;48.214;16.378;2024-03-29T08:38:04;17.10;43.90
76168;DHT22;64927;48.214;16.378;2024-03-29T08:40:30;17.20;43.70
76168;DHT22;64927;48.214;16.378;2024-03-29T08:42:57;17.20;43.60
76168;DHT22;64927;48.214;16.378;2024-03-29T08:45:23;17.20;43.80
76168;DHT22;64927;48.214;16.378;2024-03-29T08:47:49;17.10;44.10
76168;DHT22;64927;48.214;16.378;2024-03-29T08:50:17;17.10;44.20
76168;DHT22;64927;48.214;16.378;2024-03-29T08:52:44;17.10;44.40
76168;DHT22;64927;48.214;16.378;2024-03-29T08:55:10;17.30;44.20
76168;DHT22;64927;48.214;16.378;2024-03-29T08:57:36;17.50;44.30
76168;DHT22;64927;48.214;16.378;2024-03-29T09:00:02;17.70;43.60
76168;DHT22;64927;48.214;16.378;2024-03-29T09:02:28;17.80;43.50
76168;DHT22;64927;48.214;16.378;2024-03-29T09:04:56;17.90;43.10
76168;DHT22;64927;48.214;16.378;2024-03-29T09:07:24;17.80;43.00
76168;DHT22;64927;48.214;16.378;2024-03-29T09:09:50;17.80;43.50
76168;DHT22;64927;48.214;16.378;2024-03-29T09:12:18;17.70;43.60
76168;DHT22;64927;48.214;16.378;2024-03-29T09:14:45;17.80;43.60
76168;DHT22;64927;48.214;16.378;2024-03-29T09:17:11;17.90;43.50
76168;DHT22;64927;48.214;16.378;2024-03-29T09:19:36;17.90;43.60
76168;DHT22;64927;48.214;16.378;2024-03-29T09:22:02;17.90;43.60
76168;DHT22;64927;48.214;16.378;2024-03-29T09:24:28;17.80;43.90
76168;DHT22;64927;48.214;16.378;2024-03-29T09:26:54;17.90;44.30
76168;DHT22;64927;48.214;16.378;2024-03-29T09:29:20;17.90;44.50
76168;DHT22;64927;48.214;16.378;2024-03-29T09:31:48;18.10;44.30
76168;DHT22;64927;48.214;16.378;2024-03-29T09:34:15;18.40;43.70
76168;DHT22;64927;48.214;16.378;2024-03-29T09:36:41;18.50;43.40
76168;DHT22;64927;48.214;16.378;2024-03-29T09:39:07;18.60;43.40
76168;DHT22;64927;48.214;16.378;2024-03-29T09:41:35;18.70;43.00
76168;DHT22;64927;48.214;16.378;2024-03-29T09:44:03;18.80;42.80
76168;DHT22;64927;48.214;16.378;2024-03-29T09:46:32;18.90;40.70
76168;DHT22;64927;48.214;16.378;2024-03-29T09:48:59;18.70;41.10
76168;DHT22;64927;48.214;16.378;2024-03-29T09:51:26;18.80;41.30
76168;DHT22;64927;48.214;16.378;2024-03-29T09:53:55;18.70;41.10
76168;DHT22;64927;48.214;16.378;2024-03-29T09:56:24;18.80;41.00
76168;DHT22;64927;48.214;16.378;2024-03-29T09:58:50;18.90;40.80
76168;DHT22;64927;48.214;16.378;2024-03-29T10:01:18;19.10;40.80
76168;DHT22;64927;48.214;16.378;2024-03-29T10:03:49;19.10;40.50
76168;DHT22;64927;48.214;16.378;2024-03-29T10:06:17;19.10;40.20
76168;DHT22;64927;48.214;16.378;2024-03-29T10:08:45;19.10;39.60
76168;DHT22;64927;48.214;16.378;2024-03-29T10:11:11;19.10;39.60
76168;DHT22;64927;48.214;16.378;2024-03-29T10:13:37;19.10;39.70
76168;DHT22;64927;48.214;16.378;2024-03-29T10:16:05;19.10;39.90
76168;DHT22;64927;48.214;16.378;2024-03-29T10:18:31;19.10;40.30
76168;DHT22;64927;48.214;16.378;2024-03-29T10:21:01;19.10;39.80
76168;DHT22;64927;48.214;16.378;2024-03-29T10:23:30;19.30;39.80
76168;DHT22;64927;48.214;16.378;2024-03-29T10:25:56;19.20;39.80
76168;DHT22;64927;48.214;16.378;2024-03-29T10:28:23;19.20;39.80
76168;DHT22;64927;48.214;16.378;2024-03-29T10:30:49;19.10;39.90
76168;DHT22;64927;48.214;16.378;2024-03-29T10:33:16;19.20;39.70
76168;DHT22;64927;48.214;16.378;2024-03-29T10:35:45;19.30;39.60
76168;DHT22;64927;48.214;16.378;2024-03-29T10:38:12;19.30;39.60
76168;DHT22;64927;48.214;16.378;2024-03-29T10:40:41;19.10;39.80
76168;DHT22;64927;48.214;16.378;2024-03-29T10:43:09;19.20;39.80
76168;DHT22;64927;48.214;16.378;2024-03-29T10:45:40;19.40;39.30
76168;DHT22;64927;48.214;16.378;2024-03-29T10:48:07;19.40;39.40
76168;DHT22;64927;48.214;16.378;2024-03-29T10:50:36;19.60;39.20
76168;DHT22;64927;48.214;16.378;2024-03-29T10:53:02;19.70;40.10
76168;DHT22;64927;48.214;16.378;2024-03-29T10:55:37;19.90;39.10
76168;DHT22;64927;48.214;16.378;2024-03-29T10:58:05;20.00;38.70
76168;DHT22;64927;48.214;16.378;2024-03-29T11:00:35;20.20;39.00
76168;DHT22;64927;48.214;16.378;2024-03-29T11:05:55;20.30;37.90
76168;DHT22;64927;48.214;16.378;2024-03-29T11:08:27;20.40;37.70
76168;DHT22;64927;48.214;16.378;2024-03-29T11:10:58;20.30;38.00
76168;DHT22;64927;48.214;16.378;2024-03-29T11:13:37;20.00;38.60
76168;DHT22;64927;48.214;16.378;2024-03-29T11:16:07;19.90;39.30
76168;DHT22;64927;48.214;16.378;2024-03-29T11:18:34;20.10;39.20
76168;DHT22;64927;48.214;16.378;2024-03-29T11:21:00;20.30;39.00
76168;DHT22;64927;48.214;16.378;2024-03-29T11:23:34;20.30;38.70
76168;DHT22;64927;48.214;16.378;2024-03-29T11:26:00;20.30;39.10
76168;DHT22;64927;48.214;16.378;2024-03-29T11:28:31;20.20;39.60
76168;DHT22;64927;48.214;16.378;2024-03-29T11:31:02;20.20;39.00
76168;DHT22;64927;48.214;16.378;2024-03-29T11:33:34;20.00;39.30
76168;DHT22;64927;48.214;16.378;2024-03-29T11:38:33;19.80;39.50
76168;DHT22;64927;48.214;16.378;2024-03-29T11:41:03;19.80;39.80
76168;DHT22;64927;48.214;16.378;2024-03-29T11:43:31;20.00;39.60
76168;DHT22;64927;48.214;16.378;2024-03-29T11:45:58;19.90;39.60
76168;DHT22;64927;48.214;16.378;2024-03-29T11:48:27;20.10;39.50
76168;DHT22;64927;48.214;16.378;2024-03-29T11:50:53;20.10;39.40
76168;DHT22;64927;48.214;16.378;2024-03-29T11:53:20;20.10;39.70
76168;DHT22;64927;48.214;16.378;2024-03-29T11:55:48;20.30;39.10
76168;DHT22;64927;48.214;16.378;2024-03-29T11:58:22;20.30;39.40
76168;DHT22;64927;48.214;16.378;2024-03-29T12:00:48;20.30;39.60
76168;DHT22;64927;48.214;16.378;2024-03-29T12:03:18;20.40;39.80
76168;DHT22;64927;48.214;16.378;2024-03-29T12:05:46;20.50;39.80
76168;DHT22;64927;48.214;16.378;2024-03-29T12:08:14;20.70;38.70
76168;DHT22;64927;48.214;16.378;2024-03-29T12:10:40;20.70;38.70
76168;DHT22;64927;48.214;16.378;2024-03-29T12:13:07;20.70;38.80
76168;DHT22;64927;48.214;16.378;2024-03-29T12:15:33;20.80;39.30
76168;DHT22;64927;48.214;16.378;2024-03-29T12:20:28;21.30;38.20
76168;DHT22;64927;48.214;16.378;2024-03-29T12:22:54;21.40;37.90
76168;DHT22;64927;48.214;16.378;2024-03-29T12:25:20;21.60;37.30
76168;DHT22;64927;48.214;16.378;2024-03-29T12:27:47;21.70;37.20
76168;DHT22;64927;48.214;16.378;2024-03-29T12:30:13;21.70;37.20
76168;DHT22;64927;48.214;16.378;2024-03-29T12:32:40;21.60;37.10
76168;DHT22;64927;48.214;16.378;2024-03-29T12:35:16;21.80;36.80
76168;DHT22;64927;48.214;16.378;2024-03-29T12:37:48;21.90;36.00
76168;DHT22;64927;48.214;16.378;2024-03-29T12:40:18;22.00;36.60
76168;DHT22;64927;48.214;16.378;2024-03-29T12:42:48;22.10;35.20
76168;DHT22;64927;48.214;16.378;2024-03-29T12:45:14;22.10;34.70
76168;DHT22;64927;48.214;16.378;2024-03-29T12:47:40;22.20;34.60
76168;DHT22;64927;48.214;16.378;2024-03-29T12:50:06;22.10;34.60
76168;DHT22;64927;48.214;16.378;2024-03-29T12:52:39;22.10;34.80
76168;DHT22;64927;48.214;16.378;2024-03-29T12:55:05;22.10;34.90
76168;DHT22;64927;48.214;16.378;2024-03-29T12:57:33;22.10;34.90
76168;DHT22;64927;48.214;16.378;2024-03-29T12:59:59;22.20;35.00
76168;DHT22;64927;48.214;16.378;2024-03-29T13:02:24;22.30;34.80
76168;DHT22;64927;48.214;16.378;2024-03-29T13:04:50;22.50;34.30
76168;DHT22;64927;48.214;16.378;2024-03-29T13:07:16;22.50;34.60
76168;DHT22;64927;48.214;16.378;2024-03-29T13:09:42;22.60;34.50
76168;DHT22;64927;48.214;16.378;2024-03-29T13:12:08;22.50;34.60
76168;DHT22;64927;48.214;16.378;2024-03-29T13:14:33;22.60;34.50
76168;DHT22;64927;48.214;16.378;2024-03-29T13:16:59;22.60;34.30
76168;DHT22;64927;48.214;16.378;2024-03-29T13:19:27;22.30;34.70
76168;DHT22;64927;48.214;16.378;2024-03-29T13:21:55;22.20;35.10
76168;DHT22;64927;48.214;16.378;2024-03-29T13:24:21;22.00;35.20
76168;DHT22;64927;48.214;16.378;2024-03-29T13:26:51;22.00;35.50
76168;DHT22;64927;48.214;16.378;2024-03-29T13:29:17;21.90;35.50
76168;DHT22;64927;48.214;16.378;2024-03-29T13:31:42;21.90;35.60
76168;DHT22;64927;48.214;16.378;2024-03-29T13:34:08;22.00;35.70
76168;DHT22;64927;48.214;16.378;2024-03-29T13:36:44;22.10;35.60
76168;DHT22;64927;48.214;16.378;2024-03-29T13:39:12;22.20;35.50
76168;DHT22;64927;48.214;16.378;2024-03-29T13:41:43;22.20;35.50
76168;DHT22;64927;48.214;16.378;2024-03-29T13:44:08;22.30;35.30
76168;DHT22;64927;48.214;16.378;2024-03-29T13:46:35;22.30;35.50
76168;DHT22;64927;48.214;16.378;2024-03-29T13:49:02;22.40;35.40
76168;DHT22;64927;48.214;16.378;2024-03-29T13:51:28;22.40;35.30
76168;DHT22;64927;48.214;16.378;2024-03-29T13:53:57;22.50;35.00
76168;DHT22;64927;48.214;16.378;2024-03-29T13:56:24;22.50;35.00
76168;DHT22;64927;48.214;16.378;2024-03-29T13:58:50;22.50;35.10
76168;DHT22;64927;48.214;16.378;2024-03-29T14:01:17;22.70;34.90
76168;DHT22;64927;48.214;16.378;2024-03-29T14:03:43;22.80;34.60
76168;DHT22;64927;48.214;16.378;2024-03-29T14:06:09;22.90;34.50
76168;DHT22;64927;48.214;16.378;2024-03-29T14:08:38;22.90;33.90
76168;DHT22;64927;48.214;16.378;2024-03-29T14:11:03;23.00;34.10
76168;DHT22;64927;48.214;16.378;2024-03-29T14:13:31;23.00;33.80
76168;DHT22;64927;48.214;16.378;2024-03-29T14:16:00;23.10;33.10
76168;DHT22;64927;48.214;16.378;2024-03-29T14:18:26;23.30;32.10
76168;DHT22;64927;48.214;16.378;2024-03-29T14:20:54;23.40;32.20
76168;DHT22;64927;48.214;16.378;2024-03-29T14:23:19;23.40;31.70
76168;DHT22;64927;48.214;16.378;2024-03-29T14:25:50;23.40;31.80
76168;DHT22;64927;48.214;16.378;2024-03-29T14:28:16;23.50;30.50
76168;DHT22;64927;48.214;16.378;2024-03-29T14:30:42;23.60;30.10
76168;DHT22;64927;48.214;16.378;2024-03-29T14:33:07;23.70;30.10
76168;DHT22;64927;48.214;16.378;2024-03-29T14:35:35;23.70;30.20
76168;DHT22;64927;48.214;16.378;2024-03-29T14:38:03;23.70;30.40
76168;DHT22;64927;48.214;16.378;2024-03-29T14:40:29;23.70;30.40
76168;DHT22;64927;48.214;16.378;2024-03-29T14:42:55;23.80;31.10
76168;DHT22;64927;48.214;16.378;2024-03-29T14:45:23;23.70;31.40
76168;DHT22;64927;48.214;16.378;2024-03-29T14:47:50;23.60;31.40
76168;DHT22;64927;48.214;16.378;2024-03-29T14:50:18;23.60;31.50
76168;DHT22;64927;48.214;16.378;2024-03-29T14:52:44;23.60;31.50
76168;DHT22;64927;48.214;16.378;2024-03-29T14:55:09;23.60;31.40
76168;DHT22;64927;48.214;16.378;2024-03-29T14:57:38;23.60;31.40
76168;DHT22;64927;48.214;16.378;2024-03-29T15:00:07;23.60;31.40
76168;DHT22;64927;48.214;16.378;2024-03-29T15:02:36;23.50;31.30
76168;DHT22;64927;48.214;16.378;2024-03-29T15:05:02;23.60;31.10
76168;DHT22;64927;48.214;16.378;2024-03-29T15:07:33;23.60;31.20
76168;DHT22;64927;48.214;16.378;2024-03-29T15:09:59;23.50;31.10
76168;DHT22;64927;48.214;16.378;2024-03-29T15:12:26;23.40;30.90
76168;DHT22;64927;48.214;16.378;2024-03-29T15:14:56;23.40;30.90
76168;DHT22;64927;48.214;16.378;2024-03-29T15:17:22;23.40;31.10
76168;DHT22;64927;48.214;16.378;2024-03-29T15:19:50;23.30;31.20
76168;DHT22;64927;48.214;16.378;2024-03-29T15:22:17;23.30;31.20
76168;DHT22;64927;48.214;16.378;2024-03-29T15:24:43;23.30;31.20